createdAt,value
2023-03-20T00:01:30.681Z,7.13
2023-03-20T00:03:58.345Z,7.18
2023-03-20T00:06:27.156Z,6.55
2023-03-20T00:08:55.198Z,7.75
2023-03-20T00:11:30.998Z,7.28
2023-03-20T00:14:01.503Z,6.93
2023-03-20T00:16:43.189Z,6.75
2023-03-20T00:19:26.020Z,6.60
2023-03-20T00:21:54.996Z,6.82
2023-03-20T00:24:22.964Z,6.55
2023-03-20T00:26:51.177Z,6.18
2023-03-20T00:29:36.751Z,5.95
2023-03-20T00:32:04.074Z,6.30
2023-03-20T00:34:32.205Z,6.10
2023-03-20T00:37:00.104Z,5.63
2023-03-20T00:39:29.805Z,6.40
2023-03-20T00:42:06.254Z,6.47
2023-03-20T00:44:36.925Z,6.47
2023-03-20T00:47:06.733Z,6.00
2023-03-20T00:49:38.660Z,7.32
2023-03-20T00:52:09.819Z,6.32
2023-03-20T00:57:14.495Z,6.20
2023-03-20T00:59:58.490Z,7.15
2023-03-20T01:02:28.969Z,7.43
2023-03-20T01:04:57.485Z,6.95
2023-03-20T01:07:27.648Z,6.80
2023-03-20T01:09:55.664Z,6.30
2023-03-20T01:12:23.889Z,6.60
2023-03-20T01:14:56.559Z,6.32
2023-03-20T01:17:25.294Z,7.22
2023-03-20T01:19:52.644Z,6.93
2023-03-20T01:22:20.025Z,6.45
2023-03-20T01:24:48.396Z,6.13
2023-03-20T01:27:18.568Z,7.07
2023-03-20T01:29:46.844Z,6.07
2023-03-20T01:32:17.925Z,5.60
2023-03-20T01:34:48.679Z,6.47
2023-03-20T01:37:23.286Z,6.00
2023-03-20T01:39:51.687Z,6.68
2023-03-20T01:42:19.347Z,6.88
2023-03-20T01:44:46.866Z,7.72
2023-03-20T01:47:21.125Z,7.72
2023-03-20T01:50:22.843Z,6.75
2023-03-20T01:53:07.679Z,5.78
2023-03-20T01:55:40.917Z,6.15
2023-03-20T01:58:15.341Z,6.18
2023-03-20T02:00:42.767Z,6.25
2023-03-20T02:03:14.241Z,5.60
2023-03-20T02:06:16.936Z,5.47
2023-03-20T02:08:59.134Z,5.50
2023-03-20T02:11:29.243Z,5.63
2023-03-20T02:13:58.935Z,6.32
2023-03-20T02:16:29.570Z,6.03
2023-03-20T02:19:11.359Z,5.35
2023-03-20T02:22:21.961Z,6.00
2023-03-20T02:25:15.928Z,6.10
2023-03-20T02:28:21.156Z,6.13
2023-03-20T02:31:14.734Z,5.22
2023-03-20T02:34:02.440Z,5.45
2023-03-20T02:36:54.226Z,6.72
2023-03-20T02:39:26.724Z,5.80
2023-03-20T02:42:00.191Z,6.50
2023-03-20T02:44:39.468Z,6.03
2023-03-20T02:47:14.720Z,6.00
2023-03-20T02:49:52.898Z,6.40
2023-03-20T02:52:51.782Z,6.03
2023-03-20T02:55:33.921Z,5.85
2023-03-20T02:58:09.309Z,6.75
2023-03-20T03:00:48.574Z,6.65
2023-03-20T03:03:34.352Z,6.00
2023-03-20T03:06:09.073Z,7.05
2023-03-20T03:08:41.359Z,6.63
2023-03-20T03:11:09.811Z,6.25
2023-03-20T03:13:42.146Z,5.90
2023-03-20T03:16:14.530Z,6.35
2023-03-20T03:18:42.949Z,5.90
2023-03-20T03:21:14.125Z,6.40
2023-03-20T03:23:49.138Z,6.35
2023-03-20T03:26:28.293Z,6.35
2023-03-20T03:29:02.679Z,6.30
2023-03-20T03:31:30.923Z,5.93
2023-03-20T03:33:59.784Z,6.82
2023-03-20T03:36:39.903Z,6.60
2023-03-20T03:39:19.487Z,5.38
2023-03-20T03:41:56.542Z,4.45
2023-03-20T03:44:47.071Z,5.78
2023-03-20T03:47:33.433Z,5.35
2023-03-20T03:50:05.663Z,4.72
2023-03-20T03:52:33.489Z,4.60
2023-03-20T03:57:44.635Z,4.40
2023-03-20T04:00:18.144Z,4.13
2023-03-20T04:02:47.493Z,3.90
2023-03-20T04:05:16.192Z,4.15
2023-03-20T04:07:47.343Z,4.00
2023-03-20T04:10:15.456Z,3.70
2023-03-20T04:12:44.388Z,3.65
2023-03-20T04:15:12.824Z,3.80
2023-03-20T04:17:40.297Z,3.35
2023-03-20T04:20:09.915Z,3.88
2023-03-20T04:22:37.312Z,4.63
2023-03-20T04:25:16.291Z,4.20
2023-03-20T04:27:43.600Z,3.10
2023-03-20T04:30:18.985Z,3.75
2023-03-20T04:33:05.191Z,3.15
2023-03-20T04:35:44.432Z,3.58
2023-03-20T04:38:15.940Z,4.18
2023-03-20T04:40:44.920Z,3.45
2023-03-20T04:43:13.149Z,3.60
2023-03-20T04:45:41.504Z,3.95
2023-03-20T04:48:09.965Z,3.63
2023-03-20T04:50:37.669Z,3.22
2023-03-20T04:53:06.660Z,3.80
2023-03-20T04:55:34.633Z,3.47
2023-03-20T04:58:02.046Z,4.25
2023-03-20T05:00:30.205Z,3.65
2023-03-20T05:02:57.430Z,3.30
2023-03-20T05:05:25.698Z,3.63
2023-03-20T05:07:53.674Z,3.45
2023-03-20T05:10:30.696Z,3.78
2023-03-20T05:13:06.252Z,3.47
2023-03-20T05:15:54.030Z,3.17
2023-03-20T05:18:46.540Z,3.40
2023-03-20T05:21:32.457Z,3.42
2023-03-20T05:24:27.492Z,3.83
2023-03-20T05:27:17.949Z,3.38
2023-03-20T05:30:02.977Z,4.53
2023-03-20T05:32:51.026Z,3.55
2023-03-20T05:35:27.602Z,3.20
2023-03-20T05:38:23.484Z,3.33
2023-03-20T05:43:46.484Z,3.33
2023-03-20T05:46:33.304Z,2.95
2023-03-20T05:49:09.719Z,3.67
2023-03-20T05:51:57.022Z,2.80
2023-03-20T05:54:31.756Z,2.58
2023-03-20T05:57:22.333Z,2.80
2023-03-20T05:59:52.750Z,3.35
2023-03-20T06:02:38.965Z,2.72
2023-03-20T06:05:26.159Z,3.50
2023-03-20T06:07:53.952Z,3.13
2023-03-20T06:10:21.138Z,4.10
2023-03-20T06:12:53.611Z,3.90
2023-03-20T06:15:29.194Z,3.10
2023-03-20T06:18:04.425Z,3.25
2023-03-20T06:20:32.202Z,4.03
2023-03-20T06:23:02.680Z,3.72
2023-03-20T06:25:30.585Z,2.88
2023-03-20T06:27:58.294Z,2.80
2023-03-20T06:30:25.727Z,2.92
2023-03-20T06:32:54.432Z,2.97
2023-03-20T06:37:51.908Z,2.92
2023-03-20T06:40:23.549Z,2.72
2023-03-20T06:42:51.208Z,3.20
2023-03-20T06:45:19.640Z,4.40
2023-03-20T06:48:02.314Z,7.95
2023-03-20T06:50:30.766Z,3.33
2023-03-20T06:52:59.626Z,2.80
2023-03-20T06:55:32.899Z,3.20
2023-03-20T06:58:00.769Z,3.97
2023-03-20T07:00:29.773Z,4.20
2023-03-20T07:02:59.424Z,2.70
2023-03-20T07:05:28.647Z,3.40
2023-03-20T07:07:57.189Z,3.25
2023-03-20T07:10:24.628Z,2.90
2023-03-20T07:12:53.587Z,2.38
2023-03-20T07:15:21.221Z,3.30
2023-03-20T07:17:49.633Z,3.10
2023-03-20T07:20:17.186Z,3.08
2023-03-20T07:22:44.547Z,3.00
2023-03-20T07:25:20.562Z,2.70
2023-03-20T07:27:54.740Z,3.10
2023-03-20T07:30:24.594Z,3.22
2023-03-20T07:32:52.564Z,2.90
2023-03-20T07:35:21.175Z,3.45
2023-03-20T07:37:48.589Z,3.13
2023-03-20T07:40:16.217Z,3.20
2023-03-20T07:42:52.807Z,2.88
2023-03-20T07:45:39.033Z,2.50
2023-03-20T07:48:06.852Z,2.88
2023-03-20T07:50:34.270Z,3.47
2023-03-20T07:53:02.280Z,3.10
2023-03-20T07:55:29.537Z,2.72
2023-03-20T07:57:56.822Z,2.70
2023-03-20T08:00:26.104Z,2.72
2023-03-20T08:02:57.058Z,3.80
2023-03-20T08:05:25.035Z,3.28
2023-03-20T08:07:52.934Z,3.60
2023-03-20T08:10:20.502Z,3.45
2023-03-20T08:12:47.734Z,3.92
2023-03-20T08:15:15.298Z,2.85
2023-03-20T08:17:44.629Z,3.78
2023-03-20T08:20:14.465Z,2.95
2023-03-20T08:22:42.814Z,3.08
2023-03-20T08:25:10.824Z,3.33
2023-03-20T08:27:38.804Z,4.03
2023-03-20T08:30:07.149Z,2.90
2023-03-20T08:32:34.514Z,2.70
2023-03-20T08:35:01.848Z,2.83
2023-03-20T08:37:29.224Z,3.10
2023-03-20T08:39:56.455Z,2.70
2023-03-20T08:42:23.972Z,2.58
2023-03-20T08:44:51.346Z,2.90
2023-03-20T08:47:19.724Z,3.08
2023-03-20T08:49:47.228Z,2.80
2023-03-20T08:52:14.735Z,2.70
2023-03-20T08:54:42.417Z,3.42
2023-03-20T08:57:10.364Z,3.03
2023-03-20T08:59:38.011Z,3.60
2023-03-20T09:02:05.958Z,3.10
2023-03-20T09:04:33.451Z,2.80
2023-03-20T09:07:03.074Z,3.35
2023-03-20T09:09:30.943Z,3.17
2023-03-20T09:11:59.356Z,2.83
2023-03-20T09:14:28.670Z,3.83
2023-03-20T09:16:56.371Z,3.03
2023-03-20T09:19:23.741Z,3.17
2023-03-20T09:21:51.224Z,3.10
2023-03-20T09:24:18.616Z,3.38
2023-03-20T09:26:45.952Z,3.75
2023-03-20T09:29:13.353Z,5.63
2023-03-20T09:31:41.153Z,5.65
2023-03-20T09:34:08.838Z,3.75
2023-03-20T09:36:36.584Z,2.72
2023-03-20T09:39:04.749Z,3.17
2023-03-20T09:41:49.247Z,4.05
2023-03-20T09:45:13.544Z,3.83
2023-03-20T09:47:54.768Z,2.97
2023-03-20T09:50:38.715Z,2.88
2023-03-20T09:53:24.939Z,2.90
2023-03-20T09:55:53.906Z,3.00
2023-03-20T09:58:25.775Z,3.20
2023-03-20T10:00:56.196Z,3.20
2023-03-20T10:03:30.004Z,2.50
2023-03-20T10:06:03.585Z,3.05
2023-03-20T10:08:36.931Z,3.42
2023-03-20T10:11:10.237Z,3.08
2023-03-20T10:13:37.409Z,3.47
2023-03-20T10:16:12.724Z,3.63
2023-03-20T10:18:47.104Z,4.30
2023-03-20T10:21:24.178Z,3.38
2023-03-20T10:24:04.643Z,3.88
2023-03-20T10:26:36.246Z,3.05
2023-03-20T10:29:26.203Z,3.20
2023-03-20T10:32:02.826Z,3.28
2023-03-20T10:34:52.225Z,3.35
2023-03-20T10:37:32.686Z,3.27
2023-03-20T10:40:05.774Z,3.05
2023-03-20T10:42:39.619Z,2.40
2023-03-20T10:45:14.883Z,3.25
2023-03-20T10:47:48.536Z,3.35
2023-03-20T10:50:19.041Z,3.67
2023-03-20T10:52:48.605Z,2.80
2023-03-20T10:55:22.725Z,3.35
2023-03-20T10:57:56.685Z,3.53
2023-03-20T11:00:26.374Z,3.00
2023-03-20T11:02:53.681Z,5.25
2023-03-20T11:05:21.062Z,3.30
2023-03-20T11:07:52.844Z,2.92
2023-03-20T11:10:20.568Z,2.60
2023-03-20T11:12:49.209Z,3.67
2023-03-20T11:15:21.816Z,2.72
2023-03-20T11:18:07.291Z,3.55
2023-03-20T11:20:39.701Z,4.97
2023-03-20T11:23:10.754Z,3.85
2023-03-20T11:25:40.034Z,4.10
2023-03-20T11:28:19.677Z,4.07
2023-03-20T11:31:03.849Z,3.47
2023-03-20T11:33:40.338Z,6.57
2023-03-20T11:36:30.299Z,5.30
2023-03-20T11:39:27.932Z,7.90
2023-03-20T11:41:57.024Z,8.80
2023-03-20T11:44:26.741Z,7.93
2023-03-20T11:47:05.700Z,5.65
2023-03-20T11:49:34.974Z,6.63
2023-03-20T11:52:11.443Z,4.00
2023-03-20T11:54:46.604Z,4.75
2023-03-20T11:57:46.206Z,4.47
2023-03-20T12:00:21.489Z,5.20
2023-03-20T12:02:48.982Z,4.38
2023-03-20T12:05:33.133Z,5.57
2023-03-20T12:08:14.142Z,5.10
2023-03-20T12:10:43.697Z,5.53
2023-03-20T12:13:21.635Z,16.10
2023-03-20T12:15:55.820Z,10.18
2023-03-20T12:18:26.969Z,5.65
2023-03-20T12:21:10.294Z,4.65
2023-03-20T12:23:48.209Z,4.75
2023-03-20T12:26:20.504Z,5.25
2023-03-20T12:28:52.540Z,3.90
2023-03-20T12:31:34.277Z,4.78
2023-03-20T12:34:16.480Z,4.70
2023-03-20T12:36:52.954Z,7.90
2023-03-20T12:39:25.327Z,6.88
2023-03-20T12:42:02.317Z,4.30
2023-03-20T12:44:43.469Z,3.67
2023-03-20T12:47:33.284Z,4.03
2023-03-20T12:50:25.489Z,7.03
2023-03-20T12:53:11.749Z,21.40
2023-03-20T12:55:54.866Z,7.07
2023-03-20T12:58:36.634Z,6.78
2023-03-20T13:01:07.372Z,5.10
2023-03-20T13:04:12.549Z,4.63
2023-03-20T13:06:51.994Z,7.85
2023-03-20T13:09:57.300Z,8.47
2023-03-20T13:12:45.964Z,6.97
2023-03-20T13:15:23.919Z,8.65
2023-03-20T13:17:51.786Z,4.85
2023-03-20T13:20:27.014Z,4.35
2023-03-20T13:22:59.264Z,4.50
2023-03-20T13:25:35.848Z,4.35
2023-03-20T13:28:13.569Z,3.97
2023-03-20T13:30:50.339Z,4.55
2023-03-20T13:33:38.753Z,4.97
2023-03-20T13:36:19.140Z,4.10
2023-03-20T13:38:50.283Z,5.03
2023-03-20T13:41:17.697Z,3.78
2023-03-20T13:43:54.222Z,4.07
2023-03-20T13:46:27.961Z,3.50
2023-03-20T13:48:59.145Z,3.65
2023-03-20T13:51:34.438Z,3.42
2023-03-20T13:54:01.808Z,3.95
2023-03-20T13:56:44.797Z,4.40
2023-03-20T13:59:33.621Z,3.80
2023-03-20T14:02:18.839Z,3.33
2023-03-20T14:04:47.665Z,4.55
2023-03-20T14:07:33.957Z,5.47
2023-03-20T14:10:37.420Z,3.75
2023-03-20T14:13:10.136Z,3.47
2023-03-20T14:15:39.111Z,3.88
2023-03-20T14:18:13.441Z,3.13
2023-03-20T14:20:42.595Z,4.13
2023-03-20T14:23:30.066Z,3.53
2023-03-20T14:25:59.280Z,3.80
2023-03-20T14:28:31.549Z,4.00
2023-03-20T14:31:26.430Z,3.97
2023-03-20T14:34:12.184Z,4.10
2023-03-20T14:36:53.086Z,3.38
2023-03-20T14:39:44.530Z,3.20
2023-03-20T14:42:36.127Z,3.75
2023-03-20T14:45:42.457Z,3.08
2023-03-20T14:48:32.671Z,3.08
2023-03-20T14:51:11.856Z,3.45
2023-03-20T14:53:40.813Z,3.70
2023-03-20T14:56:13.647Z,4.50
2023-03-20T14:58:43.707Z,3.78
2023-03-20T15:01:26.153Z,3.80
2023-03-20T15:04:11.131Z,3.65
2023-03-20T15:06:49.985Z,3.65
2023-03-20T15:09:18.127Z,3.88
2023-03-20T15:11:46.640Z,3.65
2023-03-20T15:14:20.580Z,3.63
2023-03-20T15:16:47.967Z,3.70
2023-03-20T15:19:18.567Z,3.20
2023-03-20T15:21:48.031Z,3.47
2023-03-20T15:24:27.202Z,4.60
2023-03-20T15:26:57.986Z,4.03
2023-03-20T15:29:25.795Z,4.30
2023-03-20T15:32:12.476Z,3.85
2023-03-20T15:34:42.500Z,4.32
2023-03-20T15:37:15.359Z,3.67
2023-03-20T15:39:48.536Z,3.95
2023-03-20T15:42:18.315Z,4.85
2023-03-20T15:44:48.304Z,4.25
2023-03-20T15:49:54.828Z,3.75
2023-03-20T15:52:42.633Z,3.45
2023-03-20T15:55:14.760Z,4.55
2023-03-20T15:57:44.952Z,4.35
2023-03-20T16:00:16.902Z,4.35
2023-03-20T16:02:48.277Z,3.90
2023-03-20T16:05:16.587Z,4.80
2023-03-20T16:07:44.184Z,4.60
2023-03-20T16:10:34.315Z,4.78
2023-03-20T16:15:31.655Z,6.75
2023-03-20T16:18:01.952Z,5.05
2023-03-20T16:20:35.486Z,4.28
2023-03-20T16:23:08.561Z,4.05
2023-03-20T16:25:36.983Z,4.10
2023-03-20T16:28:07.415Z,3.72
2023-03-20T16:30:35.632Z,4.30
2023-03-20T16:33:12.943Z,4.50
2023-03-20T16:35:44.171Z,3.85
2023-03-20T16:38:26.012Z,3.95
2023-03-20T16:40:59.897Z,4.65
2023-03-20T16:43:30.945Z,4.43
2023-03-20T16:46:05.696Z,4.82
2023-03-20T16:48:37.493Z,4.70
2023-03-20T16:51:26.377Z,5.25
2023-03-20T16:53:59.172Z,4.40
2023-03-20T16:56:29.771Z,4.55
2023-03-20T16:58:57.397Z,5.30
2023-03-20T17:01:27.646Z,4.53
2023-03-20T17:04:11.915Z,4.25
2023-03-20T17:06:44.736Z,3.70
2023-03-20T17:09:25.850Z,3.70
2023-03-20T17:12:05.984Z,4.50
2023-03-20T17:14:34.381Z,3.78
2023-03-20T17:17:02.301Z,3.53
2023-03-20T17:19:32.407Z,4.35
2023-03-20T17:22:03.515Z,4.30
2023-03-20T17:24:31.034Z,3.75
2023-03-20T17:26:58.891Z,4.53
2023-03-20T17:29:27.117Z,4.35
2023-03-20T17:31:54.709Z,4.38
2023-03-20T17:34:22.468Z,4.40
2023-03-20T17:36:50.814Z,5.00
2023-03-20T17:39:19.818Z,4.15
2023-03-20T17:41:47.792Z,4.40
2023-03-20T17:44:16.224Z,4.45
2023-03-20T17:46:57.181Z,4.70
2023-03-20T17:49:27.530Z,3.63
2023-03-20T17:51:55.582Z,4.50
2023-03-20T17:54:22.859Z,4.13
2023-03-20T17:56:50.523Z,3.83
2023-03-20T17:59:18.420Z,4.60
2023-03-20T18:01:45.870Z,3.65
2023-03-20T18:04:13.212Z,3.80
2023-03-20T18:06:40.599Z,3.97
2023-03-20T18:09:12.664Z,4.18
2023-03-20T18:11:41.907Z,3.70
2023-03-20T18:14:09.238Z,4.00
2023-03-20T18:16:36.581Z,3.90
2023-03-20T18:19:03.835Z,4.78
2023-03-20T18:21:31.203Z,4.43
2023-03-20T18:23:58.438Z,4.65
2023-03-20T18:26:27.466Z,4.70
2023-03-20T18:28:55.623Z,4.30
2023-03-20T18:31:23.335Z,5.20
2023-03-20T18:33:52.883Z,4.90
2023-03-20T18:36:22.273Z,5.03
2023-03-20T18:38:50.731Z,4.60
2023-03-20T18:41:17.992Z,5.55
2023-03-20T18:43:46.654Z,6.55
2023-03-20T18:46:21.032Z,5.30
2023-03-20T18:48:49.703Z,5.50
2023-03-20T18:51:17.011Z,5.78
2023-03-20T18:53:44.558Z,6.30
2023-03-20T18:56:19.248Z,7.03
2023-03-20T18:58:47.498Z,6.43
2023-03-20T19:01:15.968Z,6.47
2023-03-20T19:03:44.689Z,6.20
2023-03-20T19:06:14.807Z,7.80
2023-03-20T19:08:42.516Z,7.70
2023-03-20T19:11:15.419Z,7.43
2023-03-20T19:13:51.115Z,6.82
2023-03-20T19:16:26.251Z,6.07
2023-03-20T19:18:55.467Z,6.97
2023-03-20T19:21:26.329Z,10.23
2023-03-20T19:23:55.314Z,10.93
2023-03-20T19:26:27.156Z,10.70
2023-03-20T19:28:56.180Z,8.85
2023-03-20T19:31:24.852Z,8.02
2023-03-20T19:33:52.456Z,7.93
2023-03-20T19:36:26.877Z,7.93
2023-03-20T19:38:55.106Z,8.68
2023-03-20T19:41:22.425Z,8.77
2023-03-20T19:43:55.579Z,9.55
2023-03-20T19:46:39.733Z,9.65
2023-03-20T19:49:17.961Z,10.32
2023-03-20T19:51:46.184Z,14.55
2023-03-20T19:54:13.509Z,16.75
2023-03-20T19:56:40.845Z,9.75
2023-03-20T19:59:08.440Z,22.00
2023-03-20T20:01:36.514Z,33.83
2023-03-20T20:04:04.126Z,38.97
2023-03-20T20:06:33.004Z,30.38
2023-03-20T20:09:01.559Z,16.33
2023-03-20T20:11:29.338Z,10.07
2023-03-20T20:14:06.732Z,9.32
2023-03-20T20:20:14.229Z,9.18
2023-03-20T20:22:41.945Z,7.97
2023-03-20T20:25:11.146Z,7.75
2023-03-20T20:27:39.090Z,7.88
2023-03-20T20:30:10.383Z,8.40
2023-03-20T20:32:38.774Z,9.65
2023-03-20T20:35:38.815Z,13.70
2023-03-20T20:40:43.844Z,15.27
2023-03-20T20:43:11.498Z,16.50
2023-03-20T20:45:39.126Z,14.90
2023-03-20T20:48:07.322Z,12.68
2023-03-20T20:50:39.143Z,11.52
2023-03-20T20:53:08.187Z,10.93
2023-03-20T20:55:35.551Z,10.45
2023-03-20T20:58:04.058Z,10.13
2023-03-20T21:00:45.768Z,10.55
2023-03-20T21:03:16.274Z,11.02
2023-03-20T21:05:43.613Z,10.90
2023-03-20T21:08:12.047Z,10.82
2023-03-20T21:10:40.061Z,11.30
2023-03-20T21:13:08.393Z,11.70
2023-03-20T21:15:36.546Z,12.35
2023-03-20T21:18:04.129Z,12.95
2023-03-20T21:20:32.143Z,13.50
2023-03-20T21:23:00.479Z,12.15
2023-03-20T21:25:47.101Z,12.05
2023-03-20T21:28:15.226Z,11.60
2023-03-20T21:31:16.202Z,11.65
2023-03-20T21:33:35.765Z,11.32
2023-03-20T21:36:04.222Z,12.57
2023-03-20T21:39:06.847Z,12.98
2023-03-20T21:41:19.876Z,13.43
2023-03-20T21:43:47.626Z,12.32
2023-03-20T21:46:46.749Z,13.27
2023-03-20T21:55:12.951Z,14.10
2023-03-20T22:01:03.218Z,18.38
2023-03-20T22:03:09.935Z,19.60
2023-03-20T22:09:19.769Z,13.75
2023-03-20T22:23:18.316Z,13.63
2023-03-20T22:42:35.306Z,15.60
2023-03-20T22:45:02.862Z,15.70
2023-03-20T22:47:31.336Z,15.70
2023-03-20T22:49:58.939Z,16.85
2023-03-20T22:52:37.902Z,13.98
2023-03-20T22:55:09.823Z,14.38
2023-03-20T22:57:45.521Z,16.40
2023-03-20T23:02:45.959Z,14.85
2023-03-20T23:05:13.864Z,14.88
2023-03-20T23:07:41.201Z,13.65
2023-03-20T23:10:09.921Z,13.65
2023-03-20T23:12:38.172Z,13.90
2023-03-20T23:15:06.558Z,13.35
2023-03-20T23:17:33.844Z,13.88
2023-03-20T23:20:10.785Z,12.55
2023-03-20T23:22:38.491Z,12.68
2023-03-20T23:25:18.292Z,12.30
2023-03-20T23:27:51.387Z,12.80
2023-03-20T23:30:19.855Z,11.40
2023-03-20T23:32:48.254Z,11.70
2023-03-20T23:35:15.565Z,12.05
2023-03-20T23:37:42.815Z,11.32
2023-03-20T23:40:10.761Z,12.80
2023-03-20T23:42:38.116Z,12.45
2023-03-20T23:45:19.155Z,13.32
2023-03-20T23:47:48.329Z,12.85
2023-03-20T23:50:30.079Z,13.52
2023-03-20T23:53:13.055Z,12.05
2023-03-20T23:55:47.073Z,12.15
2023-03-20T23:58:14.790Z,11.95
